Time;durP1;ratioP1;P1;durP2;ratioP2;P2;SDS_P1;SDS_P2;PMS_P1;PMS_P2;Temp;Humidity;BMP_temperature;BMP_pressure;BME280_temperature;BME280_humidity;BME280_pressure;Samples;Min_cycle;Max_cycle;Signal;HPM_P1;HPM_P2
2022/04/03 00:01:48;;;;;;;17.80;10.95;;;-1.00;99.90;;;;;;5046501;28;20045;-86
2022/04/03 00:04:14;;;;;;;16.50;10.38;;;-1.10;99.90;;;;;;5049128;28;20029;-87
2022/04/03 00:06:40;;;;;;;17.80;11.15;;;-1.10;99.90;;;;;;5049938;28;20104;-87
2022/04/03 00:09:06;;;;;;;16.67;9.10;;;-1.10;99.90;;;;;;5037099;28;20052;-86
2022/04/03 00:11:32;;;;;;;17.23;10.00;;;-1.20;99.90;;;;;;5044506;28;20536;-86
2022/04/03 00:13:58;;;;;;;14.70;8.65;;;-1.10;99.90;;;;;;5045982;28;20104;-86
2022/04/03 00:16:24;;;;;;;14.48;9.40;;;-1.20;99.90;;;;;;5018176;28;20113;-86
2022/04/03 00:18:50;;;;;;;16.40;9.90;;;-1.20;99.90;;;;;;5021768;28;20108;-87
2022/04/03 00:21:17;;;;;;;14.73;8.52;;;-1.20;99.90;;;;;;5035783;28;20053;-87
2022/04/03 00:23:43;;;;;;;15.95;9.60;;;-1.10;99.90;;;;;;5031845;28;20078;-86
2022/04/03 00:26:08;;;;;;;16.52;9.45;;;-1.10;99.90;;;;;;5036330;28;20037;-87
2022/04/03 00:28:34;;;;;;;15.98;9.40;;;-1.10;99.90;;;;;;5041571;28;20061;-87
2022/04/03 00:31:00;;;;;;;14.57;8.65;;;-1.30;99.90;;;;;;5033483;28;20049;-86
2022/04/03 00:33:25;;;;;;;16.30;8.95;;;-1.30;99.90;;;;;;5028835;28;20516;-86
2022/04/03 00:35:51;;;;;;;15.57;9.65;;;-1.20;99.90;;;;;;5040798;28;20033;-86
2022/04/03 00:38:17;;;;;;;14.07;8.68;;;-1.20;99.90;;;;;;5036127;28;20056;-85
2022/04/03 00:40:45;;;;;;;15.75;8.43;;;-1.20;99.90;;;;;;5015912;28;20100;-86
2022/04/03 00:43:11;;;;;;;15.77;8.60;;;-1.20;99.90;;;;;;5029233;28;20289;-86
2022/04/03 00:45:39;;;;;;;17.58;8.80;;;-1.20;99.90;;;;;;5026693;28;20425;-84
2022/04/03 00:48:06;;;;;;;17.35;9.48;;;-1.20;99.90;;;;;;5048465;28;20022;-86
2022/04/03 00:50:32;;;;;;;14.23;7.72;;;-1.20;99.90;;;;;;5056595;28;20037;-87
2022/04/03 00:52:57;;;;;;;12.20;5.88;;;-1.20;99.90;;;;;;5050603;28;20044;-86
2022/04/03 00:55:23;;;;;;;13.80;8.63;;;-1.10;99.90;;;;;;5011802;28;20463;-87
2022/04/03 00:57:49;;;;;;;14.25;8.80;;;-1.20;99.90;;;;;;5026874;28;20044;-87
2022/04/03 01:00:15;;;;;;;15.55;8.82;;;-1.20;99.90;;;;;;5010203;28;20030;-86
2022/04/03 01:02:41;;;;;;;16.02;9.52;;;-1.30;99.90;;;;;;5011799;28;20030;-87
2022/04/03 01:05:07;;;;;;;12.73;8.18;;;-1.30;99.90;;;;;;5025197;28;20472;-87
2022/04/03 01:07:33;;;;;;;14.65;8.70;;;-1.10;99.90;;;;;;5046477;28;20029;-86
2022/04/03 01:10:00;;;;;;;14.60;8.18;;;-1.10;99.90;;;;;;5033672;28;20017;-85
2022/04/03 01:12:26;;;;;;;13.55;7.65;;;-1.10;99.90;;;;;;5028885;28;20548;-85
2022/04/03 01:14:51;;;;;;;14.18;8.07;;;-1.10;99.90;;;;;;5030174;28;20068;-86
2022/04/03 01:17:17;;;;;;;13.38;8.45;;;-1.10;99.90;;;;;;5029478;28;20033;-86
2022/04/03 01:19:43;;;;;;;13.55;8.52;;;-1.20;99.90;;;;;;5034622;28;20041;-86
2022/04/03 01:22:09;;;;;;;14.65;8.20;;;-1.30;99.90;;;;;;5048900;28;20033;-86
2022/04/03 01:24:35;;;;;;;13.43;7.40;;;-1.30;99.90;;;;;;5032004;28;20067;-86
2022/04/03 01:27:02;;;;;;;13.93;8.07;;;-1.20;99.90;;;;;;5028466;28;20032;-86
2022/04/03 01:29:27;;;;;;;12.55;8.60;;;-1.20;99.90;;;;;;5047835;28;20092;-86
2022/04/03 01:31:53;;;;;;;13.95;7.95;;;-1.20;99.90;;;;;;5036015;28;20500;-86
2022/04/03 01:34:20;;;;;;;12.02;7.20;;;-1.10;99.90;;;;;;5032537;28;20025;-86
2022/04/03 01:36:47;;;;;;;13.70;8.85;;;-1.10;99.90;;;;;;5034753;28;20031;-86
2022/04/03 01:39:13;;;;;;;18.13;8.57;;;-1.20;99.90;;;;;;5034815;28;20461;-86
2022/04/03 01:41:42;;;;;;;12.20;7.28;;;-1.20;99.90;;;;;;5033292;28;20034;-86
2022/04/03 01:44:10;;;;;;;12.93;8.13;;;-1.20;99.90;;;;;;5034936;28;20021;-86
2022/04/03 01:46:37;;;;;;;13.98;8.48;;;-1.20;99.90;;;;;;5043502;28;20615;-85
2022/04/03 01:49:04;;;;;;;12.10;7.22;;;-1.10;99.90;;;;;;5040298;28;20029;-86
2022/04/03 01:51:31;;;;;;;22.83;10.77;;;-1.20;99.90;;;;;;5039492;28;20052;-86
2022/04/03 01:53:56;;;;;;;13.80;8.35;;;-1.20;99.90;;;;;;5031537;28;20749;-86
2022/04/03 01:56:22;;;;;;;13.80;7.80;;;-1.20;99.90;;;;;;5029142;28;20192;-85
2022/04/03 01:58:48;;;;;;;12.65;7.20;;;-1.00;99.90;;;;;;5012089;28;20096;-86
2022/04/03 02:01:14;;;;;;;13.25;7.57;;;-1.00;99.90;;;;;;5036670;28;20137;-86
2022/04/03 02:03:39;;;;;;;14.75;7.72;;;-1.10;99.90;;;;;;5040426;28;20030;-86
2022/04/03 02:06:05;;;;;;;12.43;6.95;;;-1.20;99.90;;;;;;5042191;28;20124;-86
2022/04/03 02:08:31;;;;;;;10.55;5.75;;;-1.10;99.90;;;;;;5032407;28;20392;-86
2022/04/03 02:10:58;;;;;;;12.18;6.38;;;-1.10;99.90;;;;;;5039469;28;20048;-86
2022/04/03 02:13:24;;;;;;;12.93;6.80;;;-1.10;99.90;;;;;;5037277;28;20036;-87
2022/04/03 02:15:50;;;;;;;10.57;6.35;;;-1.10;99.90;;;;;;5039742;28;20025;-86
2022/04/03 02:18:17;;;;;;;12.85;7.55;;;-1.00;99.90;;;;;;5030574;28;20116;-86
2022/04/03 02:20:43;;;;;;;12.25;6.85;;;-1.00;99.90;;;;;;5040939;28;20039;-86
2022/04/03 02:23:08;;;;;;;13.65;6.40;;;-1.00;99.90;;;;;;5032853;28;20104;-86
2022/04/03 02:25:34;;;;;;;10.05;6.95;;;-1.00;99.90;;;;;;5039197;28;20033;-85
2022/04/03 02:27:59;;;;;;;11.85;7.15;;;-1.20;99.90;;;;;;5035144;28;20123;-85
2022/04/03 02:30:26;;;;;;;14.70;7.57;;;-1.00;99.90;;;;;;5021161;28;20092;-86
2022/04/03 02:32:52;;;;;;;11.48;6.13;;;-1.20;99.90;;;;;;5043545;28;20075;-85
2022/04/03 02:35:18;;;;;;;12.50;7.93;;;-1.20;99.90;;;;;;5045828;28;20412;-85
2022/04/03 02:37:44;;;;;;;10.68;6.40;;;-1.10;99.90;;;;;;5033010;28;20120;-85
2022/04/03 02:40:13;;;;;;;11.18;5.88;;;-1.10;99.90;;;;;;5025568;28;21017;-86
2022/04/03 02:42:39;;;;;;;10.45;5.97;;;-1.10;99.90;;;;;;5022378;28;20029;-86
2022/04/03 02:45:06;;;;;;;12.85;5.90;;;-1.10;99.90;;;;;;5039611;28;20037;-86
2022/04/03 02:47:33;;;;;;;12.25;6.03;;;-1.20;99.90;;;;;;5037589;28;20032;-87
2022/04/03 02:49:59;;;;;;;11.45;6.10;;;-1.10;99.90;;;;;;5046953;28;20067;-87
2022/04/03 02:52:25;;;;;;;12.60;5.90;;;-1.20;99.90;;;;;;5037658;28;20057;-86
2022/04/03 02:54:51;;;;;;;10.32;6.03;;;-1.20;99.90;;;;;;5032039;28;20033;-86
2022/04/03 02:57:17;;;;;;;11.85;5.93;;;-1.10;99.90;;;;;;5041326;28;20037;-86
2022/04/03 02:59:44;;;;;;;10.90;6.93;;;-1.20;99.90;;;;;;5026795;28;20029;-85
2022/04/03 03:02:10;;;;;;;10.70;6.47;;;-1.20;99.90;;;;;;5043589;28;20045;-86
2022/04/03 03:04:36;;;;;;;9.77;5.28;;;-1.20;99.90;;;;;;5016078;28;20038;-85
2022/04/03 03:07:03;;;;;;;9.00;5.32;;;-1.20;99.90;;;;;;5028707;28;20198;-85
2022/04/03 03:09:29;;;;;;;8.52;5.25;;;-1.20;99.90;;;;;;5048712;28;20025;-86
2022/04/03 03:11:55;;;;;;;11.23;5.97;;;-1.20;99.90;;;;;;5042146;28;20032;-86
2022/04/03 03:14:21;;;;;;;10.20;5.82;;;-1.20;99.90;;;;;;5032288;28;20021;-86
2022/04/03 03:16:47;;;;;;;10.40;6.07;;;-1.20;99.90;;;;;;5041184;28;20025;-86
2022/04/03 03:19:13;;;;;;;11.15;6.97;;;-1.10;99.90;;;;;;5035651;28;20025;-85
2022/04/03 03:21:38;;;;;;;8.65;5.60;;;-1.20;99.90;;;;;;5032282;28;20039;-86
2022/04/03 03:24:04;;;;;;;11.85;5.82;;;-1.20;99.90;;;;;;5035280;28;20079;-87
2022/04/03 03:26:30;;;;;;;11.77;6.82;;;-1.20;99.90;;;;;;5033422;28;20053;-86
2022/04/03 03:28:56;;;;;;;11.40;6.80;;;-1.20;99.90;;;;;;5036424;28;20380;-86
2022/04/03 03:31:21;;;;;;;19.35;6.70;;;-1.20;99.90;;;;;;5037961;28;20032;-86
2022/04/03 03:33:47;;;;;;;10.95;7.00;;;-1.20;99.90;;;;;;5037955;28;20550;-87
2022/04/03 03:36:13;;;;;;;12.43;6.45;;;-1.10;99.90;;;;;;5033575;28;20029;-87
2022/04/03 03:38:40;;;;;;;11.38;6.15;;;-1.10;99.90;;;;;;5043836;28;20025;-87
2022/04/03 03:41:06;;;;;;;10.60;6.82;;;-1.00;99.90;;;;;;5034943;28;20045;-87
2022/04/03 03:43:32;;;;;;;10.32;6.10;;;-1.00;99.90;;;;;;5024890;28;20087;-87
2022/04/03 03:45:58;;;;;;;11.93;6.75;;;-1.00;99.90;;;;;;5015474;28;20017;-86
2022/04/03 03:48:24;;;;;;;12.35;6.38;;;-1.20;99.90;;;;;;5043092;28;20079;-87
2022/04/03 03:50:50;;;;;;;11.30;6.60;;;-1.10;99.90;;;;;;5037833;28;20029;-85
2022/04/03 03:53:15;;;;;;;10.98;6.10;;;-1.00;99.90;;;;;;5036491;28;20369;-85
2022/04/03 03:55:41;;;;;;;11.13;6.63;;;-1.00;99.90;;;;;;5043106;28;20488;-85
2022/04/03 03:58:07;;;;;;;10.85;6.63;;;-0.90;99.90;;;;;;5039801;28;20484;-85
2022/04/03 04:00:34;;;;;;;12.38;6.07;;;-0.90;99.90;;;;;;5030123;28;20492;-85
2022/04/03 04:03:00;;;;;;;10.05;6.05;;;-1.00;99.90;;;;;;5012535;28;20341;-86
2022/04/03 04:05:25;;;;;;;9.43;6.13;;;-0.90;99.90;;;;;;5037258;28;20033;-85
2022/04/03 04:07:52;;;;;;;14.68;6.97;;;-1.00;99.90;;;;;;5034321;28;20370;-87
2022/04/03 04:10:18;;;;;;;11.43;7.22;;;-1.10;99.90;;;;;;5028395;28;20033;-86
2022/04/03 04:12:46;;;;;;;8.98;6.43;;;-1.20;99.90;;;;;;5008018;28;20080;-85
2022/04/03 04:15:13;;;;;;;11.68;7.80;;;-1.20;99.90;;;;;;5015299;28;20030;-86
2022/04/03 04:17:44;;;;;;;10.80;6.80;;;-1.20;99.90;;;;;;5010377;28;20034;-86
2022/04/03 04:20:12;;;;;;;12.63;6.88;;;-1.20;99.90;;;;;;5022433;28;20038;-86
2022/04/03 04:22:42;;;;;;;11.65;7.05;;;-1.20;99.90;;;;;;5030847;28;20040;-86
2022/04/03 04:25:11;;;;;;;12.20;7.30;;;-1.20;99.90;;;;;;5030131;28;20056;-86
2022/04/03 04:27:37;;;;;;;12.23;7.80;;;-1.10;99.90;;;;;;5029751;28;20534;-87
2022/04/03 04:30:04;;;;;;;11.20;6.80;;;-1.10;99.90;;;;;;5029853;28;20033;-87
2022/04/03 04:32:29;;;;;;;13.63;6.35;;;-1.20;99.90;;;;;;5029370;28;20037;-86
2022/04/03 04:34:55;;;;;;;12.48;8.00;;;-1.30;99.90;;;;;;5029538;28;20033;-86
2022/04/03 04:37:20;;;;;;;12.48;7.47;;;-1.30;99.90;;;;;;5035398;28;20033;-85
2022/04/03 04:39:46;;;;;;;13.73;6.97;;;-1.40;99.90;;;;;;5030463;28;20045;-87
2022/04/03 04:42:13;;;;;;;11.93;6.68;;;-1.30;99.90;;;;;;5034029;28;20091;-86
2022/04/03 04:44:39;;;;;;;13.20;6.85;;;-1.20;99.90;;;;;;5039762;28;20057;-87
2022/04/03 04:47:05;;;;;;;13.68;6.85;;;-1.10;99.90;;;;;;5043929;28;20100;-86
2022/04/03 04:49:31;;;;;;;13.98;7.43;;;-1.10;99.90;;;;;;5045913;28;20021;-86
2022/04/03 04:51:56;;;;;;;16.02;7.60;;;-1.20;99.90;;;;;;5043706;28;20033;-86
2022/04/03 04:54:23;;;;;;;13.65;8.27;;;-1.20;99.90;;;;;;5034456;28;20034;-86
2022/04/03 04:56:48;;;;;;;14.90;7.35;;;-1.10;99.90;;;;;;5028589;28;20097;-86
2022/04/03 04:59:14;;;;;;;15.85;8.25;;;-1.10;99.90;;;;;;5028142;28;20062;-86
2022/04/03 05:01:40;;;;;;;14.10;8.48;;;-1.20;99.90;;;;;;5027950;28;20029;-86
2022/04/03 05:04:06;;;;;;;12.98;7.90;;;-1.20;99.90;;;;;;5032060;28;20048;-86
2022/04/03 05:06:34;;;;;;;15.13;7.85;;;-1.10;99.90;;;;;;5046105;28;20136;-85
2022/04/03 05:09:00;;;;;;;13.68;8.00;;;-1.10;99.90;;;;;;5020922;28;20029;-85
2022/04/03 05:11:26;;;;;;;13.05;7.63;;;-1.00;99.90;;;;;;5029296;28;20025;-85
2022/04/03 05:13:52;;;;;;;11.55;6.82;;;-0.90;99.90;;;;;;5040344;28;20091;-85
2022/04/03 05:16:18;;;;;;;13.45;8.00;;;-0.80;99.90;;;;;;5045623;28;20028;-86
2022/04/03 05:18:44;;;;;;;13.57;7.88;;;-0.90;99.90;;;;;;5049759;28;20032;-85
2022/04/03 05:21:10;;;;;;;14.73;7.93;;;-1.10;99.90;;;;;;5036613;28;20046;-86
2022/04/03 05:23:38;;;;;;;12.13;7.40;;;-1.00;99.90;;;;;;5017827;28;20049;-86
2022/04/03 05:26:04;;;;;;;12.32;7.13;;;-1.00;99.90;;;;;;5038726;28;20063;-86
2022/04/03 05:28:30;;;;;;;13.90;7.88;;;-0.90;99.90;;;;;;5038134;28;20084;-86
2022/04/03 05:30:55;;;;;;;13.18;7.75;;;-1.00;99.90;;;;;;5016903;28;20026;-85
2022/04/03 05:33:22;;;;;;;24.48;9.25;;;-0.80;99.90;;;;;;5040865;28;20026;-84
2022/04/03 05:35:49;;;;;;;13.35;7.63;;;-0.80;99.90;;;;;;5012785;28;20064;-86
2022/04/03 05:38:15;;;;;;;13.00;7.40;;;-0.70;99.90;;;;;;5049029;28;20032;-85
2022/04/03 05:40:40;;;;;;;13.65;7.63;;;-0.70;99.90;;;;;;5040148;28;20404;-85
2022/04/03 05:43:06;;;;;;;13.13;8.20;;;-0.80;99.90;;;;;;5026575;28;20075;-85
2022/04/03 05:45:32;;;;;;;11.88;6.95;;;-0.70;99.90;;;;;;5036966;28;20083;-85
2022/04/03 05:47:57;;;;;;;13.55;6.53;;;-0.60;99.90;;;;;;5031032;28;20026;-85
2022/04/03 05:50:23;;;;;;;11.70;7.43;;;-0.60;99.90;;;;;;5012011;28;20076;-85
2022/04/03 05:52:51;;;;;;;13.85;7.55;;;-0.60;99.90;;;;;;5028350;28;20124;-84
2022/04/03 05:55:20;;;;;;;11.75;7.32;;;-0.60;99.90;;;;;;5032155;28;20072;-86
2022/04/03 05:57:48;;;;;;;15.75;6.95;;;-0.50;99.90;;;;;;5049308;28;20021;-86
2022/04/03 06:00:15;;;;;;;14.38;6.95;;;-0.40;99.90;;;;;;5047952;28;20056;-85
2022/04/03 06:02:55;;;;;;;13.32;7.53;;;-0.50;99.90;;;;;;5025799;28;20021;-85
2022/04/03 06:05:27;;;;;;;12.38;6.95;;;-0.60;99.90;;;;;;5035158;28;20108;-84
2022/04/03 06:07:53;;;;;;;12.98;8.18;;;-0.50;99.90;;;;;;5047592;28;20029;-85
2022/04/03 06:10:21;;;;;;;14.13;7.47;;;-0.50;99.90;;;;;;5046289;28;20109;-84
2022/04/03 06:13:00;;;;;;;13.00;7.18;;;-0.60;99.90;;;;;;5038280;28;20040;-85
2022/04/03 06:15:34;;;;;;;14.10;8.05;;;-0.50;99.90;;;;;;5040703;28;20022;-85
2022/04/03 06:18:08;;;;;;;16.88;8.18;;;-0.50;99.90;;;;;;5056313;28;20037;-84
2022/04/03 06:20:34;;;;;;;17.02;7.88;;;-0.40;99.90;;;;;;5057910;28;20041;-85
2022/04/03 06:23:01;;;;;;;17.92;7.93;;;-0.30;99.90;;;;;;5041715;28;20044;-86
2022/04/03 06:25:27;;;;;;;15.25;8.55;;;-0.50;99.90;;;;;;5055333;28;20017;-86
2022/04/03 06:27:53;;;;;;;14.65;8.63;;;-0.30;99.90;;;;;;5051826;28;20064;-86
2022/04/03 06:30:18;;;;;;;15.43;8.60;;;-0.40;99.90;;;;;;5029797;28;20022;-85
2022/04/03 06:32:44;;;;;;;19.90;11.00;;;-0.30;99.90;;;;;;5032959;28;20033;-84
2022/04/03 06:35:10;;;;;;;16.52;9.80;;;-0.20;99.90;;;;;;5045089;28;20049;-86
2022/04/03 06:37:36;;;;;;;15.63;8.30;;;0.10;99.90;;;;;;5049997;28;20211;-83
2022/04/03 06:40:03;;;;;;;15.85;9.05;;;0.00;99.90;;;;;;5040790;28;20034;-83
2022/04/03 06:42:30;;;;;;;15.90;8.77;;;-0.10;99.90;;;;;;5027921;28;20034;-85
2022/04/03 06:44:57;;;;;;;15.13;7.68;;;-0.10;99.90;;;;;;5045058;28;20052;-84
2022/04/03 06:47:23;;;;;;;13.65;8.25;;;0.20;99.90;;;;;;5037808;28;20076;-85
2022/04/03 06:49:49;;;;;;;15.63;8.55;;;0.40;99.90;;;;;;5037945;28;20029;-85
2022/04/03 06:52:14;;;;;;;13.80;8.30;;;0.50;99.90;;;;;;5037119;28;20029;-84
2022/04/03 06:54:40;;;;;;;12.90;7.80;;;0.50;99.90;;;;;;5030954;28;20030;-85
2022/04/03 06:57:06;;;;;;;14.35;7.50;;;0.40;99.90;;;;;;5018050;28;20034;-85
2022/04/03 06:59:32;;;;;;;13.75;7.82;;;0.30;99.90;;;;;;5043206;28;20033;-85
2022/04/03 07:01:57;;;;;;;11.77;7.30;;;0.50;99.90;;;;;;5046563;28;20098;-85
2022/04/03 07:04:23;;;;;;;14.63;8.45;;;0.50;99.90;;;;;;5048074;28;20049;-87
2022/04/03 07:06:49;;;;;;;14.70;6.78;;;0.50;99.90;;;;;;5046769;28;20040;-85
2022/04/03 07:09:15;;;;;;;10.88;6.95;;;0.40;99.90;;;;;;5031027;28;20029;-84
2022/04/03 07:11:41;;;;;;;12.02;7.43;;;0.40;99.90;;;;;;5050259;28;20660;-85
2022/04/03 07:14:06;;;;;;;13.35;7.30;;;0.40;99.90;;;;;;5049762;28;20033;-84
2022/04/03 07:16:32;;;;;;;13.85;7.90;;;0.60;99.90;;;;;;5027994;28;20033;-84
2022/04/03 07:18:58;;;;;;;15.07;7.82;;;0.40;99.90;;;;;;5034161;28;20049;-84
2022/04/03 07:21:24;;;;;;;13.43;7.75;;;0.20;99.90;;;;;;5030256;28;20029;-84
2022/04/03 07:23:50;;;;;;;12.52;7.32;;;0.20;99.90;;;;;;5039770;28;20033;-83
2022/04/03 07:26:16;;;;;;;11.48;6.20;;;0.40;99.90;;;;;;5018004;28;20157;-84
2022/04/03 07:28:42;;;;;;;12.65;6.80;;;0.30;99.90;;;;;;5050018;28;20075;-84
2022/04/03 07:31:08;;;;;;;12.18;6.93;;;0.60;99.90;;;;;;5038038;28;20098;-84
2022/04/03 07:33:34;;;;;;;11.13;5.93;;;0.60;99.90;;;;;;5030544;28;20021;-84
2022/04/03 07:36:00;;;;;;;11.57;6.25;;;0.50;99.90;;;;;;5039848;28;20017;-84
2022/04/03 07:38:27;;;;;;;13.48;7.28;;;0.60;99.90;;;;;;5032186;28;20018;-84
2022/04/03 07:40:53;;;;;;;11.23;6.13;;;0.60;99.90;;;;;;5019839;28;20124;-83
2022/04/03 07:43:18;;;;;;;13.77;7.82;;;0.80;99.90;;;;;;5016298;28;20661;-83
2022/04/03 07:45:45;;;;;;;13.40;7.78;;;0.70;99.90;;;;;;5036316;28;20032;-84
2022/04/03 07:48:11;;;;;;;13.15;6.57;;;0.80;99.90;;;;;;5015552;28;20034;-84
2022/04/03 07:50:37;;;;;;;10.55;6.25;;;0.80;99.90;;;;;;5043160;28;20037;-83
2022/04/03 07:53:04;;;;;;;13.15;7.03;;;0.80;99.90;;;;;;5035836;28;20709;-84
2022/04/03 07:55:30;;;;;;;12.18;6.25;;;1.00;99.90;;;;;;5027215;28;20034;-83
2022/04/03 07:57:56;;;;;;;13.05;7.07;;;1.20;99.90;;;;;;5038734;28;20036;-84
2022/04/03 08:00:22;;;;;;;9.77;6.28;;;1.10;99.90;;;;;;5029977;28;20025;-83
2022/04/03 08:02:48;;;;;;;11.57;7.50;;;1.10;99.90;;;;;;5027544;28;20503;-84
2022/04/03 08:05:14;;;;;;;11.43;6.65;;;1.10;99.90;;;;;;5019504;28;20060;-83
2022/04/03 08:07:44;;;;;;;12.25;6.70;;;1.10;99.90;;;;;;5020635;28;20089;-83
2022/04/03 08:10:14;;;;;;;11.48;5.55;;;1.10;99.90;;;;;;5040387;28;20117;-84
2022/04/03 08:12:41;;;;;;;22.38;7.88;;;0.90;99.90;;;;;;5037083;28;20033;-83
2022/04/03 08:15:08;;;;;;;14.30;6.75;;;1.10;99.90;;;;;;5035337;28;20033;-83
2022/04/03 08:17:35;;;;;;;9.90;6.13;;;1.10;99.90;;;;;;5037161;28;20044;-84
2022/04/03 08:20:01;;;;;;;12.32;6.45;;;1.20;99.90;;;;;;5023344;28;20045;-82
2022/04/03 08:22:27;;;;;;;15.00;6.40;;;1.10;99.90;;;;;;5012381;28;20021;-83
2022/04/03 08:24:54;;;;;;;12.40;7.05;;;1.50;99.90;;;;;;5020978;28;20041;-82
2022/04/03 08:27:19;;;;;;;10.40;6.05;;;1.60;99.90;;;;;;5021811;28;20179;-82
2022/04/03 08:29:45;;;;;;;11.35;6.32;;;1.80;99.90;;;;;;5032450;28;20132;-83
2022/04/03 08:32:12;;;;;;;9.57;6.05;;;2.10;99.90;;;;;;5032594;28;20033;-81
2022/04/03 08:34:38;;;;;;;11.32;6.68;;;2.10;99.90;;;;;;5027849;28;20032;-82
2022/04/03 08:37:04;;;;;;;10.80;5.57;;;2.50;99.10;;;;;;5026077;28;20033;-82
2022/04/03 08:39:30;;;;;;;8.95;5.45;;;2.30;99.30;;;;;;5018430;28;20064;-83
2022/04/03 08:41:56;;;;;;;9.30;6.30;;;2.50;98.20;;;;;;5021889;28;20108;-82
2022/04/03 08:44:23;;;;;;;8.07;6.00;;;2.50;99.00;;;;;;5012530;28;20028;-82
2022/04/03 08:46:49;;;;;;;9.05;6.35;;;2.90;97.80;;;;;;5030933;28;20041;-83
2022/04/03 08:49:19;;;;;;;8.38;5.22;;;3.10;96.90;;;;;;5016227;28;20033;-82
2022/04/03 08:51:46;;;;;;;8.50;4.82;;;2.80;96.70;;;;;;5025671;28;20154;-81
2022/04/03 08:54:14;;;;;;;8.93;5.97;;;3.10;96.20;;;;;;5019688;28;20036;-82
2022/04/03 08:56:42;;;;;;;10.10;6.72;;;3.30;97.10;;;;;;5014121;28;20446;-82
2022/04/03 08:59:09;;;;;;;13.05;6.95;;;3.70;94.80;;;;;;5010538;28;20038;-82
2022/04/03 09:01:35;;;;;;;11.07;6.40;;;3.60;94.90;;;;;;5023406;28;20044;-82
2022/04/03 09:04:00;;;;;;;10.52;7.10;;;3.30;94.10;;;;;;5027138;28;20025;-82
2022/04/03 09:06:27;;;;;;;12.75;8.00;;;2.80;94.70;;;;;;5023815;28;20072;-82
2022/04/03 09:08:52;;;;;;;13.93;6.35;;;2.60;97.30;;;;;;5025337;28;20724;-81
2022/04/03 09:11:19;;;;;;;10.65;5.65;;;2.50;95.00;;;;;;5025125;28;20112;-82
2022/04/03 09:13:45;;;;;;;7.80;5.25;;;2.40;94.10;;;;;;5027647;28;20080;-82
2022/04/03 09:16:11;;;;;;;9.77;6.15;;;2.80;93.60;;;;;;5028285;28;20034;-83
2022/04/03 09:18:51;;;;;;;9.75;5.25;;;3.00;94.40;;;;;;5041789;28;20025;-83
2022/04/03 09:21:25;;;;;;;8.40;5.43;;;3.60;94.20;;;;;;5034106;28;20485;-83
2022/04/03 09:24:07;;;;;;;9.00;5.75;;;3.60;92.10;;;;;;5021483;28;20038;-83
2022/04/03 09:26:34;;;;;;;8.77;5.38;;;3.80;90.50;;;;;;5018271;28;20075;-83
2022/04/03 09:29:13;;;;;;;10.40;6.35;;;3.90;92.10;;;;;;5029909;28;20057;-83
2022/04/03 09:31:40;;;;;;;8.85;5.63;;;3.80;90.50;;;;;;5027187;28;20129;-83
2022/04/03 09:34:14;;;;;;;8.80;6.32;;;3.80;89.40;;;;;;5030880;28;20714;-83
2022/04/03 09:36:40;;;;;;;8.13;4.80;;;3.70;91.40;;;;;;5018717;28;20029;-83
2022/04/03 09:39:16;;;;;;;14.18;6.40;;;3.60;91.50;;;;;;5031867;28;20048;-83
2022/04/03 09:41:58;;;;;;;13.45;7.47;;;3.50;93.10;;;;;;5022829;28;20489;-83
2022/04/03 09:44:40;;;;;;;9.80;6.15;;;4.60;90.60;;;;;;5027242;28;20032;-81
2022/04/03 09:47:26;;;;;;;10.07;6.55;;;4.80;88.10;;;;;;5028309;28;20151;-82
2022/04/03 09:49:52;;;;;;;10.43;5.72;;;4.60;88.30;;;;;;5059688;28;20386;-82
2022/04/03 09:52:41;;;;;;;11.57;6.43;;;4.90;89.80;;;;;;5045758;28;20032;-83
2022/04/03 09:55:15;;;;;;;14.95;7.00;;;4.60;83.90;;;;;;5034098;28;20053;-83
2022/04/03 09:57:42;;;;;;;12.32;7.15;;;4.70;84.30;;;;;;5020764;28;20104;-83
2022/04/03 10:00:09;;;;;;;9.15;6.20;;;5.10;90.50;;;;;;5021468;28;20022;-83
2022/04/03 10:02:34;;;;;;;9.85;6.57;;;5.40;79.90;;;;;;5017014;28;20045;-85
2022/04/03 10:05:01;;;;;;;9.63;6.55;;;6.00;80.60;;;;;;5017528;28;20026;-83
2022/04/03 10:07:30;;;;;;;18.42;8.57;;;5.60;76.80;;;;;;5015598;28;20058;-84
2022/04/03 10:09:56;;;;;;;9.88;6.75;;;5.60;78.40;;;;;;5011701;28;20029;-84
2022/04/03 10:12:22;;;;;;;9.27;6.47;;;4.70;82.20;;;;;;5017233;28;20034;-83
2022/04/03 10:14:52;;;;;;;9.23;5.57;;;4.80;83.00;;;;;;5033796;28;20040;-83
2022/04/03 10:17:19;;;;;;;8.90;5.95;;;3.90;81.60;;;;;;5032669;28;20037;-83
2022/04/03 10:19:45;;;;;;;6.80;4.68;;;4.30;83.30;;;;;;5016456;28;20511;-83
2022/04/03 10:22:35;;;;;;;9.63;6.35;;;4.60;76.20;;;;;;5031420;28;20033;-83
2022/04/03 10:25:06;;;;;;;7.80;5.30;;;4.60;78.80;;;;;;5037395;28;20495;-83
2022/04/03 10:27:40;;;;;;;8.88;6.22;;;3.80;80.30;;;;;;5017941;28;20026;-83
2022/04/03 10:30:07;;;;;;;16.38;8.38;;;3.90;82.70;;;;;;5029555;28;20028;-83
2022/04/03 10:32:34;;;;;;;11.68;6.13;;;5.00;79.10;;;;;;5031452;28;20467;-83
2022/04/03 10:35:04;;;;;;;9.98;6.05;;;4.90;75.60;;;;;;5031852;28;20433;-83
2022/04/03 10:37:29;;;;;;;10.77;6.13;;;4.70;75.90;;;;;;5025719;28;20075;-83
2022/04/03 10:40:06;;;;;;;10.13;6.18;;;4.50;75.20;;;;;;5028416;28;20075;-83
2022/04/03 10:42:32;;;;;;;9.07;5.70;;;5.10;76.40;;;;;;5019397;28;20088;-84
2022/04/03 10:45:13;;;;;;;10.30;5.88;;;5.20;74.50;;;;;;5017509;28;20033;-84
2022/04/03 10:47:40;;;;;;;9.15;6.00;;;5.30;75.40;;;;;;5041070;28;20105;-84
2022/04/03 10:50:07;;;;;;;13.73;7.25;;;5.80;68.80;;;;;;5036740;28;20133;-84
2022/04/03 10:52:36;;;;;;;10.10;6.18;;;5.20;72.30;;;;;;5027148;28;20041;-84
2022/04/03 10:55:30;;;;;;;9.13;5.88;;;5.40;71.30;;;;;;5021386;28;20026;-83
2022/04/03 10:58:04;;;;;;;12.73;5.95;;;5.50;68.70;;;;;;5037746;28;20040;-83
2022/04/03 11:00:30;;;;;;;8.60;6.20;;;5.30;68.90;;;;;;5033471;28;20034;-82
2022/04/03 11:02:55;;;;;;;8.65;5.70;;;5.90;71.60;;;;;;5038197;28;20021;-82
2022/04/03 11:05:27;;;;;;;10.45;6.18;;;6.60;67.90;;;;;;5030724;28;20174;-82
2022/04/03 11:07:54;;;;;;;9.77;5.90;;;6.90;65.10;;;;;;5037033;28;20104;-83
2022/04/03 11:10:41;;;;;;;10.13;5.93;;;6.90;63.50;;;;;;5033038;28;20392;-84
2022/04/03 11:13:10;;;;;;;7.60;4.97;;;7.00;61.30;;;;;;5034962;28;20899;-84
2022/04/03 11:15:52;;;;;;;10.63;5.55;;;6.80;60.20;;;;;;5042710;28;20030;-81
2022/04/03 11:18:50;;;;;;;11.65;5.93;;;7.00;61.30;;;;;;5039056;28;20045;-83
2022/04/03 11:21:21;;;;;;;7.05;5.30;;;7.10;60.60;;;;;;5046208;28;20026;-82
2022/04/03 11:24:06;;;;;;;7.55;4.80;;;7.40;59.40;;;;;;5027086;28;20076;-82
2022/04/03 11:26:32;;;;;;;8.32;5.15;;;6.50;59.40;;;;;;5035154;28;20029;-82
2022/04/03 11:28:59;;;;;;;7.88;5.75;;;7.30;60.50;;;;;;5027262;28;20025;-83
2022/04/03 11:31:26;;;;;;;13.40;8.27;;;8.10;57.50;;;;;;5026149;28;20045;-83
2022/04/03 11:33:52;;;;;;;5.28;4.30;;;7.50;54.10;;;;;;5039942;28;20049;-83
2022/04/03 11:36:23;;;;;;;6.07;4.65;;;8.50;56.30;;;;;;5052507;28;20053;-83
2022/04/03 11:38:51;;;;;;;7.55;5.20;;;8.30;53.80;;;;;;5013234;28;20034;-83
2022/04/03 11:41:18;;;;;;;7.93;5.82;;;6.80;59.30;;;;;;5044508;28;20594;-84
2022/04/03 11:44:02;;;;;;;7.05;4.90;;;8.90;56.80;;;;;;5037806;28;20028;-81
2022/04/03 11:46:36;;;;;;;7.22;4.70;;;9.60;50.60;;;;;;5038945;28;20030;-82
2022/04/03 11:49:15;;;;;;;5.72;4.90;;;9.10;51.70;;;;;;5027782;28;20083;-83
2022/04/03 11:51:43;;;;;;;6.00;4.40;;;8.00;53.10;;;;;;5030905;28;20104;-83
2022/04/03 11:54:09;;;;;;;6.95;4.68;;;7.20;52.80;;;;;;5035503;28;20809;-83
2022/04/03 11:56:36;;;;;;;5.85;4.22;;;6.90;53.70;;;;;;5034280;28;20037;-82
2022/04/03 11:59:04;;;;;;;5.13;4.20;;;6.50;55.80;;;;;;5027584;28;20480;-82
2022/04/03 12:01:34;;;;;;;6.22;4.35;;;6.80;53.60;;;;;;5027530;28;20044;-84
2022/04/03 12:04:12;;;;;;;6.25;4.88;;;7.20;52.10;;;;;;5010605;28;20058;-85
2022/04/03 12:06:40;;;;;;;7.65;5.20;;;7.50;52.00;;;;;;5023765;28;20049;-85
2022/04/03 12:09:11;;;;;;;6.65;4.07;;;7.90;52.30;;;;;;5029499;28;20033;-84
2022/04/03 12:11:38;;;;;;;9.55;4.93;;;8.30;50.80;;;;;;5017523;28;20021;-83
2022/04/03 12:14:06;;;;;;;8.25;4.22;;;7.30;51.60;;;;;;5039796;28;20325;-84
2022/04/03 12:16:40;;;;;;;6.55;4.57;;;5.40;54.60;;;;;;5041561;28;20033;-83
2022/04/03 12:19:15;;;;;;;6.10;3.97;;;4.70;61.20;;;;;;5034515;28;20124;-83
2022/04/03 12:21:52;;;;;;;8.23;5.10;;;4.30;63.40;;;;;;5047194;28;20025;-83
2022/04/03 12:24:19;;;;;;;6.07;4.72;;;3.70;71.90;;;;;;5037977;28;20029;-83
2022/04/03 12:27:01;;;;;;;7.93;4.32;;;3.80;69.80;;;;;;5047129;28;20026;-84
2022/04/03 12:29:29;;;;;;;7.75;3.50;;;3.00;71.80;;;;;;5036572;28;20037;-83
2022/04/03 12:31:58;;;;;;;5.60;3.67;;;2.90;70.20;;;;;;5033298;28;20559;-83
2022/04/03 12:34:26;;;;;;;6.47;3.38;;;2.70;66.30;;;;;;5057339;28;20112;-83
2022/04/03 12:36:53;;;;;;;6.10;3.47;;;2.80;68.90;;;;;;5032884;28;20057;-83
2022/04/03 12:39:42;;;;;;;7.40;3.42;;;2.90;71.60;;;;;;5019552;28;20040;-83
2022/04/03 12:42:12;;;;;;;4.53;3.05;;;2.90;69.40;;;;;;5038757;28;20090;-84
2022/04/03 12:44:56;;;;;;;6.47;3.75;;;2.90;69.10;;;;;;5037236;28;20022;-82
2022/04/03 12:47:31;;;;;;;6.35;3.95;;;2.80;67.90;;;;;;5065707;28;20408;-84